Aérodrome :
LOGIN :

S'inscrire | Disclaimer

   EN    FR    IT 

 










Légende :    VFR   VFR Marginal   IFR   IFR Intensif   IFR Très Intensif
Visi : 
Plafond : 
>= 8 km
>= 3000ft
5 à 8 km
1000 à 3000 ft
1500m à 5 km
500 à 1000 ft
800 à 1500m
200 à 500 ft
< 800m
< 200 ft
Symboles :   Orages  Brouillard  Fortes neiges  Fortes précipitations  Vent > 20 kt
SIGMETs :   Divers  Orages  Givrage  Turbulence  Onde Orograph.  Cendres Volcan.






- Altitude de l'aérodrome : 74 ft
- Code IATA : EIN


EHEH - Eindhoven

DERNIER METAR :
  • 252204Z AUTO 13003KT 100V170 0500 FG OVC000 02/02 Q1019 RED

METARs EXPIRÉS :
  • 252155Z AUTO 11003KT 070V150 0500 R21/0250N FG OVC000 02/02 Q1019 RED 13005KT 0500 FG SCT000 OVC001
  • 252125Z AUTO 12003KT 080V150 0450 R21/0225N FG OVC000 02/01 Q1020 RED 13005KT 0500 FG SCT000 OVC001
  • 252055Z AUTO 11004KT 090V160 0450 R21/0250N FG OVC000 02/01 Q1020 RED 13005KT 0500 FG SCT000 OVC001
  • 252025Z AUTO 11005KT 100V170 0500 R21/0450N FG OVC000 01/01 Q1020 RED 13005KT 0500 FG SCT000 OVC001 RMK LVP BRAVO
  • 252002Z AUTO 13003KT 080V150 0600 R21/0275N FG OVC000 02/01 Q1020 RED 13005KT 0500 FG SCT000 OVC001 RMK LVP BRAVO
  • 251955Z AUTO 13004KT 090V200 0600 R21/0450N FG OVC000 02/01 Q1020 RED 13005KT 0500 FG SCT000 OVC001 RMK LVP BRAVO
  • 251939Z AUTO 13003KT 130V190 0700 R21/0500N FG OVC000 02/01 Q1020 RED 13005KT 0500 FG SCT000 OVC001 RMK LVP BRAVO
  • 251931Z AUTO 13004KT 0750 R21/0550N FG OVC001 01/01 Q1020 RED 13005KT 0500 FG SCT000 OVC001 RMK LVP BRAVO

TAF TAF EHEH
Valide du 25 à 18h jusqu'au 27 à 00h UTC


251720Z 2518/2624 13003KT 2000 OVC002
BECMG 2519/2521 0400 FG OVC001
PROB30
TEMPO 2600/2606 1000 OVC002
BECMG 2609/2611 18007KT 3000 BKN005
BECMG 2611/2614 20012KT 5000 BKN012
PROB40 2614/2618 9999 NSW SCT020



MET'MAP, la Météo Aéronautique d'un coup d'oeil ! - Copyright ORBIFLY Décembre 2007 - Disclaimer

ORBIFLY MET'MAP TEAM :

Programmation & Développement : Alexandra Zaïnal
Sur une idée originale de : Baudouin d'Aumeries
Assistance à la programmation : Marc-Olivier Méhu
Soutien technique & logistique : Manuel Goepfert

Contact : metmap@orbifly.com




SOURCES & CREDITS :

   NOAA